sensor_id;sensor_type;location;lat;lon;timestamp;P1;durP1;ratioP1;P2;durP2;ratioP2
52057;SDS011;38063;53.210;6.504;2023-05-07T00:00:37;27.95;;;19.48;;
52057;SDS011;38063;53.210;6.504;2023-05-07T00:03:03;26.95;;;19.45;;
52057;SDS011;38063;53.210;6.504;2023-05-07T00:05:29;30.33;;;20.17;;
52057;SDS011;38063;53.210;6.504;2023-05-07T00:07:54;26.33;;;19.65;;
52057;SDS011;38063;53.210;6.504;2023-05-07T00:10:20;27.92;;;19.23;;
52057;SDS011;38063;53.210;6.504;2023-05-07T00:12:46;31.70;;;20.83;;
52057;SDS011;38063;53.210;6.504;2023-05-07T00:15:11;28.58;;;19.45;;
52057;SDS011;38063;53.210;6.504;2023-05-07T00:17:37;31.48;;;21.23;;
52057;SDS011;38063;53.210;6.504;2023-05-07T00:20:03;28.40;;;19.98;;
52057;SDS011;38063;53.210;6.504;2023-05-07T00:22:30;32.88;;;21.33;;
52057;SDS011;38063;53.210;6.504;2023-05-07T00:24:57;26.88;;;19.88;;
52057;SDS011;38063;53.210;6.504;2023-05-07T00:27:24;30.63;;;20.35;;
52057;SDS011;38063;53.210;6.504;2023-05-07T00:29:50;29.95;;;20.85;;
52057;SDS011;38063;53.210;6.504;2023-05-07T00:32:15;30.77;;;21.33;;
52057;SDS011;38063;53.210;6.504;2023-05-07T00:34:42;33.08;;;20.83;;
52057;SDS011;38063;53.210;6.504;2023-05-07T00:37:08;31.58;;;20.92;;
52057;SDS011;38063;53.210;6.504;2023-05-07T00:39:34;33.72;;;20.65;;
52057;SDS011;38063;53.210;6.504;2023-05-07T00:42:00;33.20;;;21.17;;
52057;SDS011;38063;53.210;6.504;2023-05-07T00:44:26;30.80;;;20.65;;
52057;SDS011;38063;53.210;6.504;2023-05-07T00:46:52;37.70;;;21.92;;
52057;SDS011;38063;53.210;6.504;2023-05-07T00:49:18;36.30;;;22.20;;
52057;SDS011;38063;53.210;6.504;2023-05-07T00:51:45;31.95;;;21.25;;
52057;SDS011;38063;53.210;6.504;2023-05-07T00:54:11;29.08;;;21.38;;
52057;SDS011;38063;53.210;6.504;2023-05-07T00:56:38;31.15;;;21.65;;
52057;SDS011;38063;53.210;6.504;2023-05-07T00:59:04;35.95;;;22.35;;
52057;SDS011;38063;53.210;6.504;2023-05-07T01:01:31;33.95;;;22.15;;
52057;SDS011;38063;53.210;6.504;2023-05-07T01:03:57;34.28;;;23.13;;
52057;SDS011;38063;53.210;6.504;2023-05-07T01:06:23;33.67;;;22.60;;
52057;SDS011;38063;53.210;6.504;2023-05-07T01:08:52;34.00;;;23.30;;
52057;SDS011;38063;53.210;6.504;2023-05-07T01:11:21;32.28;;;22.75;;
52057;SDS011;38063;53.210;6.504;2023-05-07T01:13:48;33.55;;;23.75;;
52057;SDS011;38063;53.210;6.504;2023-05-07T01:16:15;36.65;;;24.30;;
52057;SDS011;38063;53.210;6.504;2023-05-07T01:18:41;33.35;;;23.55;;
52057;SDS011;38063;53.210;6.504;2023-05-07T01:21:07;40.53;;;25.30;;
52057;SDS011;38063;53.210;6.504;2023-05-07T01:23:36;33.63;;;23.55;;
52057;SDS011;38063;53.210;6.504;2023-05-07T01:26:03;36.33;;;25.40;;
52057;SDS011;38063;53.210;6.504;2023-05-07T01:28:29;40.35;;;24.95;;
52057;SDS011;38063;53.210;6.504;2023-05-07T01:30:56;38.30;;;24.73;;
52057;SDS011;38063;53.210;6.504;2023-05-07T01:33:26;41.97;;;25.55;;
52057;SDS011;38063;53.210;6.504;2023-05-07T01:35:56;41.20;;;26.33;;
52057;SDS011;38063;53.210;6.504;2023-05-07T01:38:25;42.80;;;25.63;;
52057;SDS011;38063;53.210;6.504;2023-05-07T01:40:52;41.92;;;26.88;;
52057;SDS011;38063;53.210;6.504;2023-05-07T01:43:18;44.38;;;26.50;;
52057;SDS011;38063;53.210;6.504;2023-05-07T01:45:44;39.78;;;26.70;;
52057;SDS011;38063;53.210;6.504;2023-05-07T01:48:11;38.45;;;25.73;;
52057;SDS011;38063;53.210;6.504;2023-05-07T01:50:39;37.30;;;26.48;;
52057;SDS011;38063;53.210;6.504;2023-05-07T01:53:05;32.70;;;25.60;;
52057;SDS011;38063;53.210;6.504;2023-05-07T01:55:30;38.97;;;27.58;;
52057;SDS011;38063;53.210;6.504;2023-05-07T01:57:56;37.47;;;26.05;;
52057;SDS011;38063;53.210;6.504;2023-05-07T02:00:22;36.10;;;24.98;;
52057;SDS011;38063;53.210;6.504;2023-05-07T02:02:48;38.03;;;26.08;;
52057;SDS011;38063;53.210;6.504;2023-05-07T02:05:13;39.17;;;25.48;;
52057;SDS011;38063;53.210;6.504;2023-05-07T02:07:39;40.53;;;24.92;;
52057;SDS011;38063;53.210;6.504;2023-05-07T02:10:05;38.22;;;24.17;;
52057;SDS011;38063;53.210;6.504;2023-05-07T02:12:31;37.47;;;25.15;;
52057;SDS011;38063;53.210;6.504;2023-05-07T02:14:56;37.38;;;24.08;;
52057;SDS011;38063;53.210;6.504;2023-05-07T02:17:22;39.85;;;24.77;;
52057;SDS011;38063;53.210;6.504;2023-05-07T02:19:48;39.22;;;25.25;;
52057;SDS011;38063;53.210;6.504;2023-05-07T02:22:13;39.95;;;24.92;;
52057;SDS011;38063;53.210;6.504;2023-05-07T02:24:39;40.08;;;26.88;;
52057;SDS011;38063;53.210;6.504;2023-05-07T02:27:05;37.55;;;26.45;;
52057;SDS011;38063;53.210;6.504;2023-05-07T02:29:30;39.55;;;25.77;;
52057;SDS011;38063;53.210;6.504;2023-05-07T02:31:56;41.05;;;25.70;;
52057;SDS011;38063;53.210;6.504;2023-05-07T02:34:22;39.55;;;25.88;;
52057;SDS011;38063;53.210;6.504;2023-05-07T02:36:47;39.60;;;25.55;;
52057;SDS011;38063;53.210;6.504;2023-05-07T02:39:13;42.92;;;27.52;;
52057;SDS011;38063;53.210;6.504;2023-05-07T02:41:40;45.08;;;27.00;;
52057;SDS011;38063;53.210;6.504;2023-05-07T02:44:06;42.80;;;26.88;;
52057;SDS011;38063;53.210;6.504;2023-05-07T02:46:31;40.85;;;26.60;;
52057;SDS011;38063;53.210;6.504;2023-05-07T02:48:57;38.80;;;25.50;;
52057;SDS011;38063;53.210;6.504;2023-05-07T02:51:23;42.30;;;26.13;;
52057;SDS011;38063;53.210;6.504;2023-05-07T02:53:48;42.85;;;26.25;;
52057;SDS011;38063;53.210;6.504;2023-05-07T02:56:14;44.13;;;26.83;;
52057;SDS011;38063;53.210;6.504;2023-05-07T02:58:40;36.65;;;25.33;;
52057;SDS011;38063;53.210;6.504;2023-05-07T03:01:07;42.15;;;26.13;;
52057;SDS011;38063;53.210;6.504;2023-05-07T03:03:32;40.30;;;26.67;;
52057;SDS011;38063;53.210;6.504;2023-05-07T03:05:58;39.97;;;27.25;;
52057;SDS011;38063;53.210;6.504;2023-05-07T03:08:24;42.08;;;27.13;;
52057;SDS011;38063;53.210;6.504;2023-05-07T03:10:49;46.80;;;27.73;;
52057;SDS011;38063;53.210;6.504;2023-05-07T03:13:15;42.75;;;27.70;;
52057;SDS011;38063;53.210;6.504;2023-05-07T03:15:41;39.67;;;26.77;;
52057;SDS011;38063;53.210;6.504;2023-05-07T03:18:07;44.08;;;27.08;;
52057;SDS011;38063;53.210;6.504;2023-05-07T03:20:33;48.20;;;29.13;;
52057;SDS011;38063;53.210;6.504;2023-05-07T03:22:58;42.17;;;27.17;;
52057;SDS011;38063;53.210;6.504;2023-05-07T03:25:24;43.15;;;27.98;;
52057;SDS011;38063;53.210;6.504;2023-05-07T03:27:50;48.13;;;28.77;;
52057;SDS011;38063;53.210;6.504;2023-05-07T03:30:16;42.50;;;27.02;;
52057;SDS011;38063;53.210;6.504;2023-05-07T03:32:42;45.65;;;27.55;;
52057;SDS011;38063;53.210;6.504;2023-05-07T03:35:08;43.30;;;27.42;;
52057;SDS011;38063;53.210;6.504;2023-05-07T03:37:33;45.15;;;27.20;;
52057;SDS011;38063;53.210;6.504;2023-05-07T03:39:59;41.60;;;26.83;;
52057;SDS011;38063;53.210;6.504;2023-05-07T03:42:25;41.05;;;27.75;;
52057;SDS011;38063;53.210;6.504;2023-05-07T03:44:51;42.22;;;27.38;;
52057;SDS011;38063;53.210;6.504;2023-05-07T03:47:16;42.25;;;27.70;;
52057;SDS011;38063;53.210;6.504;2023-05-07T03:49:42;43.95;;;27.70;;
52057;SDS011;38063;53.210;6.504;2023-05-07T03:52:07;42.60;;;28.48;;
52057;SDS011;38063;53.210;6.504;2023-05-07T03:54:33;45.58;;;28.38;;
52057;SDS011;38063;53.210;6.504;2023-05-07T03:56:59;45.63;;;27.83;;
52057;SDS011;38063;53.210;6.504;2023-05-07T03:59:24;44.67;;;28.45;;
52057;SDS011;38063;53.210;6.504;2023-05-07T04:01:50;46.78;;;26.80;;
52057;SDS011;38063;53.210;6.504;2023-05-07T04:04:16;42.28;;;27.17;;
52057;SDS011;38063;53.210;6.504;2023-05-07T04:06:42;45.33;;;28.10;;
52057;SDS011;38063;53.210;6.504;2023-05-07T04:09:07;42.40;;;27.40;;
52057;SDS011;38063;53.210;6.504;2023-05-07T04:11:33;40.30;;;27.13;;
52057;SDS011;38063;53.210;6.504;2023-05-07T04:14:00;45.55;;;27.75;;
52057;SDS011;38063;53.210;6.504;2023-05-07T04:16:26;40.47;;;26.33;;
52057;SDS011;38063;53.210;6.504;2023-05-07T04:18:51;44.00;;;26.20;;
52057;SDS011;38063;53.210;6.504;2023-05-07T04:21:17;46.78;;;28.00;;
52057;SDS011;38063;53.210;6.504;2023-05-07T04:23:45;46.58;;;27.92;;
52057;SDS011;38063;53.210;6.504;2023-05-07T04:26:14;41.80;;;26.65;;
52057;SDS011;38063;53.210;6.504;2023-05-07T04:28:41;44.45;;;28.02;;
52057;SDS011;38063;53.210;6.504;2023-05-07T04:31:06;44.47;;;27.48;;
52057;SDS011;38063;53.210;6.504;2023-05-07T04:33:33;44.35;;;27.80;;
52057;SDS011;38063;53.210;6.504;2023-05-07T04:36:01;41.95;;;27.50;;
52057;SDS011;38063;53.210;6.504;2023-05-07T04:38:31;40.40;;;27.98;;
52057;SDS011;38063;53.210;6.504;2023-05-07T04:40:57;40.97;;;26.85;;
52057;SDS011;38063;53.210;6.504;2023-05-07T04:43:27;44.58;;;28.13;;
52057;SDS011;38063;53.210;6.504;2023-05-07T04:45:53;43.28;;;26.65;;
52057;SDS011;38063;53.210;6.504;2023-05-07T04:48:18;44.17;;;27.52;;
52057;SDS011;38063;53.210;6.504;2023-05-07T04:50:49;48.42;;;28.58;;
52057;SDS011;38063;53.210;6.504;2023-05-07T04:53:15;43.85;;;27.13;;
52057;SDS011;38063;53.210;6.504;2023-05-07T04:55:41;44.15;;;27.15;;
52057;SDS011;38063;53.210;6.504;2023-05-07T04:58:07;39.65;;;26.45;;
52057;SDS011;38063;53.210;6.504;2023-05-07T05:00:34;40.60;;;26.75;;
52057;SDS011;38063;53.210;6.504;2023-05-07T05:03:00;42.58;;;26.17;;
52057;SDS011;38063;53.210;6.504;2023-05-07T05:05:25;44.45;;;26.35;;
52057;SDS011;38063;53.210;6.504;2023-05-07T05:07:51;39.47;;;24.17;;
52057;SDS011;38063;53.210;6.504;2023-05-07T05:10:17;38.40;;;25.48;;
52057;SDS011;38063;53.210;6.504;2023-05-07T05:12:43;34.65;;;24.50;;
52057;SDS011;38063;53.210;6.504;2023-05-07T05:15:10;34.78;;;24.13;;
52057;SDS011;38063;53.210;6.504;2023-05-07T05:17:37;38.05;;;24.65;;
52057;SDS011;38063;53.210;6.504;2023-05-07T05:20:03;35.40;;;23.23;;
52057;SDS011;38063;53.210;6.504;2023-05-07T05:22:29;37.38;;;24.55;;
52057;SDS011;38063;53.210;6.504;2023-05-07T05:24:56;36.80;;;24.77;;
52057;SDS011;38063;53.210;6.504;2023-05-07T05:27:22;34.75;;;23.75;;
52057;SDS011;38063;53.210;6.504;2023-05-07T05:29:47;35.58;;;23.02;;
52057;SDS011;38063;53.210;6.504;2023-05-07T05:32:13;35.03;;;24.95;;
52057;SDS011;38063;53.210;6.504;2023-05-07T05:34:39;40.03;;;25.33;;
52057;SDS011;38063;53.210;6.504;2023-05-07T05:37:04;38.47;;;25.60;;
52057;SDS011;38063;53.210;6.504;2023-05-07T05:39:30;37.40;;;24.70;;
52057;SDS011;38063;53.210;6.504;2023-05-07T05:41:56;34.85;;;24.00;;
52057;SDS011;38063;53.210;6.504;2023-05-07T05:44:22;39.67;;;24.75;;
52057;SDS011;38063;53.210;6.504;2023-05-07T05:46:47;39.03;;;24.63;;
52057;SDS011;38063;53.210;6.504;2023-05-07T05:49:14;35.67;;;24.05;;
52057;SDS011;38063;53.210;6.504;2023-05-07T05:51:40;37.22;;;24.33;;
52057;SDS011;38063;53.210;6.504;2023-05-07T05:54:06;37.35;;;25.48;;
52057;SDS011;38063;53.210;6.504;2023-05-07T05:56:32;33.65;;;23.35;;
52057;SDS011;38063;53.210;6.504;2023-05-07T05:58:58;33.90;;;23.45;;
52057;SDS011;38063;53.210;6.504;2023-05-07T06:01:24;38.83;;;24.08;;
52057;SDS011;38063;53.210;6.504;2023-05-07T06:03:50;32.60;;;23.85;;
52057;SDS011;38063;53.210;6.504;2023-05-07T06:06:15;36.22;;;24.60;;
52057;SDS011;38063;53.210;6.504;2023-05-07T06:08:41;34.58;;;22.63;;
52057;SDS011;38063;53.210;6.504;2023-05-07T06:11:07;34.63;;;21.95;;
52057;SDS011;38063;53.210;6.504;2023-05-07T06:13:33;31.83;;;22.58;;
52057;SDS011;38063;53.210;6.504;2023-05-07T06:15:58;33.90;;;22.80;;
52057;SDS011;38063;53.210;6.504;2023-05-07T06:18:24;32.20;;;21.75;;
52057;SDS011;38063;53.210;6.504;2023-05-07T06:20:51;34.55;;;21.98;;
52057;SDS011;38063;53.210;6.504;2023-05-07T06:23:17;35.95;;;23.05;;
52057;SDS011;38063;53.210;6.504;2023-05-07T06:25:47;32.85;;;22.15;;
52057;SDS011;38063;53.210;6.504;2023-05-07T06:28:14;33.53;;;22.83;;
52057;SDS011;38063;53.210;6.504;2023-05-07T06:30:40;32.40;;;22.92;;
52057;SDS011;38063;53.210;6.504;2023-05-07T06:33:06;34.22;;;21.45;;
52057;SDS011;38063;53.210;6.504;2023-05-07T06:35:31;31.13;;;22.10;;
52057;SDS011;38063;53.210;6.504;2023-05-07T06:37:57;30.10;;;21.25;;
52057;SDS011;38063;53.210;6.504;2023-05-07T06:40:22;31.73;;;22.40;;
52057;SDS011;38063;53.210;6.504;2023-05-07T06:42:48;34.63;;;21.98;;
52057;SDS011;38063;53.210;6.504;2023-05-07T06:45:14;32.47;;;22.25;;
52057;SDS011;38063;53.210;6.504;2023-05-07T06:47:39;32.33;;;22.35;;
52057;SDS011;38063;53.210;6.504;2023-05-07T06:50:05;31.65;;;21.90;;
52057;SDS011;38063;53.210;6.504;2023-05-07T06:52:31;33.65;;;22.48;;
52057;SDS011;38063;53.210;6.504;2023-05-07T06:54:57;31.83;;;22.23;;
52057;SDS011;38063;53.210;6.504;2023-05-07T06:57:23;32.20;;;20.90;;
52057;SDS011;38063;53.210;6.504;2023-05-07T06:59:49;33.05;;;21.25;;
52057;SDS011;38063;53.210;6.504;2023-05-07T07:02:15;34.53;;;21.70;;
52057;SDS011;38063;53.210;6.504;2023-05-07T07:04:40;34.83;;;21.13;;
52057;SDS011;38063;53.210;6.504;2023-05-07T07:07:07;30.10;;;20.40;;
52057;SDS011;38063;53.210;6.504;2023-05-07T07:09:32;31.95;;;22.27;;
52057;SDS011;38063;53.210;6.504;2023-05-07T07:11:58;31.30;;;21.65;;
52057;SDS011;38063;53.210;6.504;2023-05-07T07:14:24;26.35;;;19.52;;
52057;SDS011;38063;53.210;6.504;2023-05-07T07:16:49;28.75;;;21.27;;
52057;SDS011;38063;53.210;6.504;2023-05-07T07:19:15;30.30;;;21.02;;
52057;SDS011;38063;53.210;6.504;2023-05-07T07:21:41;32.22;;;21.10;;
52057;SDS011;38063;53.210;6.504;2023-05-07T07:24:07;30.20;;;20.90;;
52057;SDS011;38063;53.210;6.504;2023-05-07T07:26:33;31.70;;;22.63;;
52057;SDS011;38063;53.210;6.504;2023-05-07T07:28:58;30.15;;;21.48;;
52057;SDS011;38063;53.210;6.504;2023-05-07T07:31:24;30.92;;;20.85;;
52057;SDS011;38063;53.210;6.504;2023-05-07T07:33:49;28.17;;;20.27;;
52057;SDS011;38063;53.210;6.504;2023-05-07T07:36:15;31.17;;;21.95;;
52057;SDS011;38063;53.210;6.504;2023-05-07T07:38:41;31.92;;;21.52;;
52057;SDS011;38063;53.210;6.504;2023-05-07T07:41:10;31.67;;;22.42;;
52057;SDS011;38063;53.210;6.504;2023-05-07T07:43:35;31.45;;;21.08;;
52057;SDS011;38063;53.210;6.504;2023-05-07T07:46:01;30.95;;;19.50;;
52057;SDS011;38063;53.210;6.504;2023-05-07T07:48:27;33.35;;;21.75;;
52057;SDS011;38063;53.210;6.504;2023-05-07T07:50:52;36.20;;;21.98;;
52057;SDS011;38063;53.210;6.504;2023-05-07T07:53:18;34.42;;;21.90;;
52057;SDS011;38063;53.210;6.504;2023-05-07T07:55:44;34.22;;;23.17;;
52057;SDS011;38063;53.210;6.504;2023-05-07T07:58:09;32.53;;;21.25;;
52057;SDS011;38063;53.210;6.504;2023-05-07T08:00:36;29.48;;;20.42;;
52057;SDS011;38063;53.210;6.504;2023-05-07T08:03:01;34.60;;;22.40;;
52057;SDS011;38063;53.210;6.504;2023-05-07T08:05:28;32.03;;;21.60;;
52057;SDS011;38063;53.210;6.504;2023-05-07T08:07:54;34.72;;;22.80;;
52057;SDS011;38063;53.210;6.504;2023-05-07T08:10:20;34.00;;;20.67;;
52057;SDS011;38063;53.210;6.504;2023-05-07T08:12:49;32.80;;;22.17;;
52057;SDS011;38063;53.210;6.504;2023-05-07T08:15:15;32.08;;;21.17;;
52057;SDS011;38063;53.210;6.504;2023-05-07T08:17:42;31.90;;;20.92;;
52057;SDS011;38063;53.210;6.504;2023-05-07T08:20:08;30.70;;;21.33;;
52057;SDS011;38063;53.210;6.504;2023-05-07T08:22:34;33.28;;;21.50;;
52057;SDS011;38063;53.210;6.504;2023-05-07T08:25:03;29.08;;;20.52;;
52057;SDS011;38063;53.210;6.504;2023-05-07T08:27:29;31.10;;;21.30;;
52057;SDS011;38063;53.210;6.504;2023-05-07T08:29:55;28.88;;;19.83;;
52057;SDS011;38063;53.210;6.504;2023-05-07T08:32:20;31.92;;;21.73;;
52057;SDS011;38063;53.210;6.504;2023-05-07T08:34:47;32.58;;;21.80;;
52057;SDS011;38063;53.210;6.504;2023-05-07T08:37:13;31.73;;;20.40;;
52057;SDS011;38063;53.210;6.504;2023-05-07T08:39:39;30.83;;;20.42;;
52057;SDS011;38063;53.210;6.504;2023-05-07T08:42:04;31.90;;;21.52;;
52057;SDS011;38063;53.210;6.504;2023-05-07T08:44:34;30.70;;;21.55;;
52057;SDS011;38063;53.210;6.504;2023-05-07T08:47:01;28.67;;;20.52;;
52057;SDS011;38063;53.210;6.504;2023-05-07T08:49:27;28.35;;;20.77;;
52057;SDS011;38063;53.210;6.504;2023-05-07T08:51:53;32.45;;;20.90;;
52057;SDS011;38063;53.210;6.504;2023-05-07T08:54:20;30.23;;;20.08;;
52057;SDS011;38063;53.210;6.504;2023-05-07T08:56:46;26.85;;;20.15;;
52057;SDS011;38063;53.210;6.504;2023-05-07T08:59:12;31.90;;;20.70;;
52057;SDS011;38063;53.210;6.504;2023-05-07T09:01:38;27.30;;;19.75;;
52057;SDS011;38063;53.210;6.504;2023-05-07T09:04:04;28.80;;;20.50;;
52057;SDS011;38063;53.210;6.504;2023-05-07T09:06:31;29.92;;;20.70;;
52057;SDS011;38063;53.210;6.504;2023-05-07T09:08:58;31.83;;;21.13;;
52057;SDS011;38063;53.210;6.504;2023-05-07T09:11:26;30.02;;;20.48;;
52057;SDS011;38063;53.210;6.504;2023-05-07T09:13:55;28.60;;;19.85;;
52057;SDS011;38063;53.210;6.504;2023-05-07T09:16:23;33.90;;;21.42;;
52057;SDS011;38063;53.210;6.504;2023-05-07T09:18:52;29.85;;;20.88;;
52057;SDS011;38063;53.210;6.504;2023-05-07T09:21:18;28.13;;;19.40;;
52057;SDS011;38063;53.210;6.504;2023-05-07T09:23:45;28.80;;;19.73;;
52057;SDS011;38063;53.210;6.504;2023-05-07T09:26:12;27.38;;;19.20;;
52057;SDS011;38063;53.210;6.504;2023-05-07T09:28:40;27.25;;;18.73;;
52057;SDS011;38063;53.210;6.504;2023-05-07T09:31:07;28.42;;;20.77;;
52057;SDS011;38063;53.210;6.504;2023-05-07T09:33:33;34.15;;;19.92;;
52057;SDS011;38063;53.210;6.504;2023-05-07T09:36:03;28.23;;;19.20;;
52057;SDS011;38063;53.210;6.504;2023-05-07T09:38:30;30.73;;;20.23;;
52057;SDS011;38063;53.210;6.504;2023-05-07T09:43:36;28.10;;;19.83;;
52057;SDS011;38063;53.210;6.504;2023-05-07T09:46:07;29.13;;;20.48;;
52057;SDS011;38063;53.210;6.504;2023-05-07T09:48:40;27.83;;;19.30;;
52057;SDS011;38063;53.210;6.504;2023-05-07T09:51:11;27.33;;;19.30;;
52057;SDS011;38063;53.210;6.504;2023-05-07T09:53:47;28.70;;;20.33;;
52057;SDS011;38063;53.210;6.504;2023-05-07T09:56:15;30.95;;;20.73;;
52057;SDS011;38063;53.210;6.504;2023-05-07T09:58:43;27.85;;;19.05;;
52057;SDS011;38063;53.210;6.504;2023-05-07T10:01:10;27.00;;;20.08;;
52057;SDS011;38063;53.210;6.504;2023-05-07T10:03:37;25.73;;;18.58;;
52057;SDS011;38063;53.210;6.504;2023-05-07T10:06:05;26.60;;;19.20;;
52057;SDS011;38063;53.210;6.504;2023-05-07T10:08:33;31.67;;;19.60;;
52057;SDS011;38063;53.210;6.504;2023-05-07T10:11:00;29.05;;;20.35;;
52057;SDS011;38063;53.210;6.504;2023-05-07T10:13:26;26.67;;;18.90;;
52057;SDS011;38063;53.210;6.504;2023-05-07T10:15:52;26.60;;;19.05;;
52057;SDS011;38063;53.210;6.504;2023-05-07T10:18:20;26.50;;;19.20;;
52057;SDS011;38063;53.210;6.504;2023-05-07T10:20:54;26.10;;;17.73;;
52057;SDS011;38063;53.210;6.504;2023-05-07T10:23:40;25.63;;;19.20;;
52057;SDS011;38063;53.210;6.504;2023-05-07T10:26:11;24.77;;;19.48;;
52057;SDS011;38063;53.210;6.504;2023-05-07T10:28:40;26.55;;;19.02;;
52057;SDS011;38063;53.210;6.504;2023-05-07T10:34:06;24.13;;;17.85;;
52057;SDS011;38063;53.210;6.504;2023-05-07T10:36:35;26.38;;;18.35;;
52057;SDS011;38063;53.210;6.504;2023-05-07T10:39:01;26.63;;;18.20;;
52057;SDS011;38063;53.210;6.504;2023-05-07T10:41:27;23.15;;;17.27;;
52057;SDS011;38063;53.210;6.504;2023-05-07T10:43:53;22.23;;;18.17;;
52057;SDS011;38063;53.210;6.504;2023-05-07T10:46:19;25.10;;;17.50;;
52057;SDS011;38063;53.210;6.504;2023-05-07T10:51:28;23.20;;;17.02;;
52057;SDS011;38063;53.210;6.504;2023-05-07T10:56:36;23.65;;;17.58;;
52057;SDS011;38063;53.210;6.504;2023-05-07T11:02:01;22.65;;;16.45;;
52057;SDS011;38063;53.210;6.504;2023-05-07T11:04:29;22.58;;;16.27;;
52057;SDS011;38063;53.210;6.504;2023-05-07T11:15:04;20.30;;;16.10;;
52057;SDS011;38063;53.210;6.504;2023-05-07T11:17:31;19.08;;;15.70;;
52057;SDS011;38063;53.210;6.504;2023-05-07T11:19:59;19.88;;;16.38;;
52057;SDS011;38063;53.210;6.504;2023-05-07T11:25:01;19.17;;;15.00;;
52057;SDS011;38063;53.210;6.504;2023-05-07T11:27:28;18.73;;;14.90;;
52057;SDS011;38063;53.210;6.504;2023-05-07T11:29:55;18.58;;;14.68;;
52057;SDS011;38063;53.210;6.504;2023-05-07T11:34:57;15.90;;;13.68;;
52057;SDS011;38063;53.210;6.504;2023-05-07T11:37:24;19.70;;;14.75;;
52057;SDS011;38063;53.210;6.504;2023-05-07T11:40:01;18.10;;;14.02;;
52057;SDS011;38063;53.210;6.504;2023-05-07T11:42:33;19.90;;;14.57;;
52057;SDS011;38063;53.210;6.504;2023-05-07T11:45:01;42.35;;;15.10;;
52057;SDS011;38063;53.210;6.504;2023-05-07T11:47:29;18.38;;;14.38;;
52057;SDS011;38063;53.210;6.504;2023-05-07T11:49:55;18.08;;;13.60;;
52057;SDS011;38063;53.210;6.504;2023-05-07T11:52:22;16.58;;;13.60;;
52057;SDS011;38063;53.210;6.504;2023-05-07T11:54:52;16.00;;;13.60;;
52057;SDS011;38063;53.210;6.504;2023-05-07T11:57:22;15.35;;;13.27;;
52057;SDS011;38063;53.210;6.504;2023-05-07T12:00:07;14.00;;;12.60;;
52057;SDS011;38063;53.210;6.504;2023-05-07T12:02:34;15.82;;;13.32;;
52057;SDS011;38063;53.210;6.504;2023-05-07T12:05:00;15.23;;;12.52;;
52057;SDS011;38063;53.210;6.504;2023-05-07T12:07:27;14.73;;;12.65;;
52057;SDS011;38063;53.210;6.504;2023-05-07T12:09:53;13.15;;;11.75;;
52057;SDS011;38063;53.210;6.504;2023-05-07T12:12:19;15.23;;;12.68;;
52057;SDS011;38063;53.210;6.504;2023-05-07T12:14:45;15.60;;;13.20;;
52057;SDS011;38063;53.210;6.504;2023-05-07T12:17:12;16.13;;;12.50;;
52057;SDS011;38063;53.210;6.504;2023-05-07T12:19:40;16.42;;;13.25;;
52057;SDS011;38063;53.210;6.504;2023-05-07T12:22:07;14.93;;;12.98;;
52057;SDS011;38063;53.210;6.504;2023-05-07T12:24:47;16.60;;;12.65;;
52057;SDS011;38063;53.210;6.504;2023-05-07T12:27:14;15.70;;;12.68;;
52057;SDS011;38063;53.210;6.504;2023-05-07T12:29:43;15.73;;;12.35;;
52057;SDS011;38063;53.210;6.504;2023-05-07T12:32:13;15.38;;;12.65;;
52057;SDS011;38063;53.210;6.504;2023-05-07T12:34:40;14.95;;;12.95;;
52057;SDS011;38063;53.210;6.504;2023-05-07T12:37:06;13.93;;;12.35;;
52057;SDS011;38063;53.210;6.504;2023-05-07T12:39:32;16.20;;;13.10;;
52057;SDS011;38063;53.210;6.504;2023-05-07T12:41:58;13.77;;;11.93;;
52057;SDS011;38063;53.210;6.504;2023-05-07T12:44:25;16.15;;;12.73;;
52057;SDS011;38063;53.210;6.504;2023-05-07T12:46:55;15.40;;;13.07;;
52057;SDS011;38063;53.210;6.504;2023-05-07T12:49:20;12.88;;;11.57;;
52057;SDS011;38063;53.210;6.504;2023-05-07T12:51:47;14.70;;;11.52;;
52057;SDS011;38063;53.210;6.504;2023-05-07T12:54:14;12.80;;;11.48;;
52057;SDS011;38063;53.210;6.504;2023-05-07T12:57:06;13.32;;;11.73;;
52057;SDS011;38063;53.210;6.504;2023-05-07T12:59:34;13.00;;;11.50;;
52057;SDS011;38063;53.210;6.504;2023-05-07T13:02:04;14.95;;;11.50;;
52057;SDS011;38063;53.210;6.504;2023-05-07T13:04:30;12.95;;;11.52;;
52057;SDS011;38063;53.210;6.504;2023-05-07T13:06:55;16.42;;;11.88;;
52057;SDS011;38063;53.210;6.504;2023-05-07T13:09:21;14.13;;;11.90;;
52057;SDS011;38063;53.210;6.504;2023-05-07T13:11:46;14.10;;;12.55;;
52057;SDS011;38063;53.210;6.504;2023-05-07T13:14:12;14.57;;;12.15;;
52057;SDS011;38063;53.210;6.504;2023-05-07T13:16:38;13.85;;;11.25;;
52057;SDS011;38063;53.210;6.504;2023-05-07T13:19:03;12.40;;;11.10;;
52057;SDS011;38063;53.210;6.504;2023-05-07T13:21:29;15.32;;;11.60;;
52057;SDS011;38063;53.210;6.504;2023-05-07T13:23:58;12.27;;;11.07;;
52057;SDS011;38063;53.210;6.504;2023-05-07T13:26:24;12.90;;;11.60;;
52057;SDS011;38063;53.210;6.504;2023-05-07T13:28:50;14.30;;;11.82;;
52057;SDS011;38063;53.210;6.504;2023-05-07T13:31:17;12.23;;;10.82;;
52057;SDS011;38063;53.210;6.504;2023-05-07T13:33:42;12.18;;;10.98;;
52057;SDS011;38063;53.210;6.504;2023-05-07T13:36:08;13.13;;;11.35;;
52057;SDS011;38063;53.210;6.504;2023-05-07T13:38:34;12.48;;;11.25;;
52057;SDS011;38063;53.210;6.504;2023-05-07T13:41:00;11.50;;;10.35;;
52057;SDS011;38063;53.210;6.504;2023-05-07T13:43:26;13.57;;;10.45;;
52057;SDS011;38063;53.210;6.504;2023-05-07T13:45:51;12.77;;;10.90;;
52057;SDS011;38063;53.210;6.504;2023-05-07T13:48:17;11.57;;;10.38;;
52057;SDS011;38063;53.210;6.504;2023-05-07T13:50:43;13.30;;;10.70;;
52057;SDS011;38063;53.210;6.504;2023-05-07T13:53:08;12.20;;;10.93;;
52057;SDS011;38063;53.210;6.504;2023-05-07T13:55:34;11.48;;;10.02;;
52057;SDS011;38063;53.210;6.504;2023-05-07T13:58:00;12.10;;;10.73;;
52057;SDS011;38063;53.210;6.504;2023-05-07T14:00:28;11.43;;;10.05;;
52057;SDS011;38063;53.210;6.504;2023-05-07T14:02:54;11.50;;;10.30;;
52057;SDS011;38063;53.210;6.504;2023-05-07T14:05:21;11.80;;;9.52;;
52057;SDS011;38063;53.210;6.504;2023-05-07T14:07:48;13.38;;;11.05;;
52057;SDS011;38063;53.210;6.504;2023-05-07T14:10:17;11.95;;;10.40;;
52057;SDS011;38063;53.210;6.504;2023-05-07T14:12:44;11.90;;;10.63;;
52057;SDS011;38063;53.210;6.504;2023-05-07T14:15:10;13.18;;;10.57;;
52057;SDS011;38063;53.210;6.504;2023-05-07T14:17:36;11.35;;;10.15;;
52057;SDS011;38063;53.210;6.504;2023-05-07T14:20:02;11.55;;;10.35;;
52057;SDS011;38063;53.210;6.504;2023-05-07T14:22:28;11.05;;;9.93;;
52057;SDS011;38063;53.210;6.504;2023-05-07T14:24:54;12.25;;;10.25;;
52057;SDS011;38063;53.210;6.504;2023-05-07T14:27:19;10.65;;;9.55;;
52057;SDS011;38063;53.210;6.504;2023-05-07T14:29:45;12.32;;;9.45;;
52057;SDS011;38063;53.210;6.504;2023-05-07T14:32:16;10.73;;;9.68;;
52057;SDS011;38063;53.210;6.504;2023-05-07T14:34:43;12.88;;;9.38;;
52057;SDS011;38063;53.210;6.504;2023-05-07T14:37:09;10.70;;;9.32;;
52057;SDS011;38063;53.210;6.504;2023-05-07T14:39:35;10.68;;;9.60;;
52057;SDS011;38063;53.210;6.504;2023-05-07T14:42:01;11.38;;;10.18;;
52057;SDS011;38063;53.210;6.504;2023-05-07T14:44:26;11.90;;;10.63;;